createdAt,value
2022-09-25T00:00:25.608Z,0.00
2022-09-25T00:01:25.655Z,0.00
2022-09-25T00:02:25.645Z,0.00
2022-09-25T00:03:25.624Z,0.00
2022-09-25T00:04:25.575Z,0.00
2022-09-25T00:05:25.566Z,0.00
2022-09-25T00:06:25.558Z,0.00
2022-09-25T00:07:25.553Z,0.00
2022-09-25T00:08:25.572Z,0.00
2022-09-25T00:09:25.537Z,0.00
2022-09-25T00:10:25.532Z,0.00
2022-09-25T00:11:25.519Z,0.00
2022-09-25T00:12:25.511Z,0.00
2022-09-25T00:13:25.531Z,0.00
2022-09-25T00:14:25.499Z,0.00
2022-09-25T00:15:25.487Z,0.00
2022-09-25T00:16:25.504Z,0.00
2022-09-25T00:17:25.471Z,0.00
2022-09-25T00:18:25.492Z,0.00
2022-09-25T00:19:25.455Z,0.00
2022-09-25T00:20:25.455Z,0.00
2022-09-25T00:21:25.439Z,0.00
2022-09-25T00:22:25.442Z,0.00
2022-09-25T00:23:25.452Z,0.00
2022-09-25T00:24:25.414Z,0.00
2022-09-25T00:25:25.407Z,0.00
2022-09-25T00:26:25.399Z,0.00
2022-09-25T00:27:25.396Z,0.00
2022-09-25T00:28:25.383Z,0.00
2022-09-25T00:29:25.401Z,0.00
2022-09-25T00:30:25.364Z,0.00
2022-09-25T00:31:25.439Z,0.00
2022-09-25T00:32:25.350Z,0.00
2022-09-25T00:33:25.350Z,0.00
2022-09-25T00:34:25.360Z,0.00
2022-09-25T00:35:25.327Z,0.00
2022-09-25T00:36:25.317Z,0.00
2022-09-25T00:37:25.314Z,0.00
2022-09-25T00:38:25.303Z,0.00
2022-09-25T00:39:25.323Z,0.00
2022-09-25T00:40:25.336Z,0.00
2022-09-25T00:41:25.286Z,0.00
2022-09-25T00:42:25.279Z,0.00
2022-09-25T00:43:25.267Z,0.00
2022-09-25T00:44:25.285Z,0.00
2022-09-25T00:45:25.256Z,0.00
2022-09-25T00:46:25.306Z,0.00
2022-09-25T00:47:25.240Z,0.00
2022-09-25T00:48:25.230Z,0.00
2022-09-25T00:49:25.251Z,0.00
2022-09-25T00:50:25.211Z,0.00
2022-09-25T00:51:25.213Z,0.00
2022-09-25T00:52:25.207Z,0.00
2022-09-25T00:53:25.192Z,0.00
2022-09-25T00:54:25.222Z,0.00
2022-09-25T00:55:25.186Z,0.00
2022-09-25T00:56:25.171Z,0.00
2022-09-25T00:57:25.164Z,0.00
2022-09-25T00:58:25.155Z,0.00
2022-09-25T00:59:25.171Z,0.00
2022-09-25T01:00:25.136Z,0.00
2022-09-25T01:01:25.181Z,0.00
2022-09-25T01:02:25.267Z,0.00
2022-09-25T01:03:25.103Z,0.00
2022-09-25T01:04:26.134Z,0.00
2022-09-25T01:05:26.094Z,0.00
2022-09-25T01:06:25.091Z,0.00
2022-09-25T01:07:25.085Z,0.00
2022-09-25T01:08:25.076Z,0.00
2022-09-25T01:09:25.121Z,0.00
2022-09-25T01:10:25.061Z,0.00
2022-09-25T01:11:25.045Z,0.00
2022-09-25T01:12:25.041Z,0.00
2022-09-25T01:13:25.037Z,0.00
2022-09-25T01:14:25.054Z,0.00
2022-09-25T01:15:25.015Z,0.00
2022-09-25T01:16:25.024Z,0.00
2022-09-25T01:17:25.020Z,0.00
2022-09-25T01:18:24.994Z,0.00
2022-09-25T01:19:25.017Z,0.00
2022-09-25T01:20:24.986Z,0.00
2022-09-25T01:21:24.972Z,0.00
2022-09-25T01:22:24.961Z,0.00
2022-09-25T01:23:24.954Z,0.00
2022-09-25T01:24:24.973Z,0.00
2022-09-25T01:25:24.949Z,0.00
2022-09-25T01:26:24.932Z,0.00
2022-09-25T01:27:24.938Z,0.00
2022-09-25T01:28:24.912Z,0.00
2022-09-25T01:29:24.931Z,0.00
2022-09-25T01:30:24.962Z,0.00
2022-09-25T01:31:25.000Z,0.00
2022-09-25T01:32:24.888Z,0.00
2022-09-25T01:33:24.874Z,0.00
2022-09-25T01:34:24.897Z,0.00
2022-09-25T01:35:24.865Z,0.00
2022-09-25T01:36:24.861Z,0.00
2022-09-25T01:37:24.853Z,0.00
2022-09-25T01:38:24.841Z,0.00
2022-09-25T01:39:24.860Z,0.00
2022-09-25T01:40:24.864Z,0.00
2022-09-25T01:41:24.816Z,0.00
2022-09-25T01:42:24.810Z,0.00
2022-09-25T01:43:24.797Z,0.00
2022-09-25T01:44:24.818Z,0.00
2022-09-25T01:45:24.783Z,0.00
2022-09-25T01:46:24.820Z,0.00
2022-09-25T01:47:25.830Z,0.00
2022-09-25T01:48:24.763Z,0.00
2022-09-25T01:49:24.782Z,0.00
2022-09-25T01:50:24.761Z,0.00
2022-09-25T01:51:24.788Z,0.00
2022-09-25T01:52:24.801Z,0.00
2022-09-25T01:53:24.810Z,0.00
2022-09-25T01:54:24.797Z,0.00
2022-09-25T01:55:24.731Z,0.00
2022-09-25T01:56:24.748Z,0.00
2022-09-25T01:57:24.804Z,0.00
2022-09-25T01:58:24.730Z,0.00
2022-09-25T01:59:25.474Z,0.00
2022-09-25T02:00:24.705Z,0.00
2022-09-25T02:01:24.737Z,0.00
2022-09-25T02:02:24.746Z,0.00
2022-09-25T02:03:24.681Z,0.00
2022-09-25T02:04:24.683Z,0.00
2022-09-25T02:05:24.762Z,0.00
2022-09-25T02:06:24.747Z,0.00
2022-09-25T02:07:24.637Z,0.00
2022-09-25T02:08:24.671Z,0.00
2022-09-25T02:09:24.681Z,0.00
2022-09-25T02:10:24.635Z,0.00
2022-09-25T02:11:24.634Z,0.00
2022-09-25T02:12:24.594Z,0.00
2022-09-25T02:13:24.583Z,0.00
2022-09-25T02:14:24.682Z,0.00
2022-09-25T02:15:24.618Z,0.00
2022-09-25T02:16:24.666Z,0.00
2022-09-25T02:17:24.583Z,0.00
2022-09-25T02:18:24.579Z,0.00
2022-09-25T02:19:24.605Z,0.00
2022-09-25T02:20:24.597Z,0.00
2022-09-25T02:21:24.557Z,0.00
2022-09-25T02:22:24.601Z,0.00
2022-09-25T02:23:24.500Z,0.00
2022-09-25T02:24:24.495Z,0.00
2022-09-25T02:25:24.513Z,0.00
2022-09-25T02:26:24.472Z,0.00
2022-09-25T02:27:24.468Z,0.00
2022-09-25T02:28:24.452Z,0.00
2022-09-25T02:29:24.448Z,0.00
2022-09-25T02:30:24.542Z,0.00
2022-09-25T02:31:24.437Z,0.00
2022-09-25T02:32:24.429Z,0.00
2022-09-25T02:33:24.419Z,0.00
2022-09-25T02:34:24.408Z,0.00
2022-09-25T02:35:24.431Z,0.00
2022-09-25T02:36:24.390Z,0.00
2022-09-25T02:37:24.510Z,0.00
2022-09-25T02:38:24.383Z,0.00
2022-09-25T02:39:24.382Z,0.00
2022-09-25T02:40:24.571Z,0.00
2022-09-25T02:41:24.358Z,0.00
2022-09-25T02:42:24.349Z,0.00
2022-09-25T02:43:24.346Z,0.00
2022-09-25T02:44:24.333Z,0.00
2022-09-25T02:45:24.348Z,0.00
2022-09-25T02:46:24.348Z,0.00
2022-09-25T02:47:24.309Z,0.00
2022-09-25T02:48:24.307Z,0.00
2022-09-25T02:49:24.302Z,0.00
2022-09-25T02:50:24.318Z,0.00
2022-09-25T02:51:24.282Z,0.00
2022-09-25T02:52:24.269Z,0.00
2022-09-25T02:53:24.261Z,0.00
2022-09-25T02:54:24.255Z,0.00
2022-09-25T02:55:24.273Z,0.00
2022-09-25T02:56:24.240Z,0.00
2022-09-25T02:57:24.243Z,0.00
2022-09-25T02:58:24.225Z,0.00
2022-09-25T02:59:24.225Z,0.00
2022-09-25T03:00:24.234Z,0.00
2022-09-25T03:01:24.263Z,0.00
2022-09-25T03:02:24.262Z,0.00
2022-09-25T03:03:24.183Z,0.00
2022-09-25T03:04:24.178Z,0.00
2022-09-25T03:05:24.197Z,0.00
2022-09-25T03:06:24.168Z,0.00
2022-09-25T03:07:24.157Z,0.00
2022-09-25T03:08:24.148Z,0.00
2022-09-25T03:09:24.142Z,0.00
2022-09-25T03:10:24.150Z,0.00
2022-09-25T03:11:24.126Z,0.00
2022-09-25T03:12:24.116Z,0.00
2022-09-25T03:13:24.109Z,0.00
2022-09-25T03:14:24.107Z,0.00
2022-09-25T03:15:24.117Z,0.00
2022-09-25T03:16:24.183Z,0.00
2022-09-25T03:17:24.080Z,0.00
2022-09-25T03:18:24.075Z,0.00
2022-09-25T03:19:24.062Z,0.00
2022-09-25T03:20:24.085Z,0.00
2022-09-25T03:21:24.052Z,0.00
2022-09-25T03:22:24.039Z,0.00
2022-09-25T03:23:24.037Z,0.00
2022-09-25T03:24:24.034Z,0.00
2022-09-25T03:25:24.043Z,0.00
2022-09-25T03:26:24.008Z,0.00
2022-09-25T03:27:23.999Z,0.00
2022-09-25T03:28:23.996Z,0.00
2022-09-25T03:29:23.987Z,0.00
2022-09-25T03:30:24.003Z,0.00
2022-09-25T03:31:25.055Z,0.00
2022-09-25T03:32:23.968Z,0.00
2022-09-25T03:33:23.951Z,0.00
2022-09-25T03:34:23.960Z,0.00
2022-09-25T03:35:23.976Z,0.00
2022-09-25T03:36:23.947Z,0.00
2022-09-25T03:37:23.930Z,0.00
2022-09-25T03:38:23.918Z,0.00
2022-09-25T03:39:23.913Z,0.00
2022-09-25T03:40:24.010Z,0.00
2022-09-25T03:41:23.921Z,0.00
2022-09-25T03:42:23.951Z,0.00
2022-09-25T03:43:23.876Z,0.00
2022-09-25T03:44:23.872Z,0.00
2022-09-25T03:45:23.854Z,0.00
2022-09-25T03:46:23.965Z,0.00
2022-09-25T03:47:23.839Z,0.00
2022-09-25T03:48:23.832Z,0.00
2022-09-25T03:49:56.714Z,0.00
2022-09-25T03:50:23.820Z,0.00
2022-09-25T03:51:23.872Z,0.00
2022-09-25T03:52:23.814Z,0.00
2022-09-25T03:53:23.797Z,0.00
2022-09-25T03:54:23.793Z,0.00
2022-09-25T03:55:23.944Z,0.00
2022-09-25T03:56:23.826Z,0.00
2022-09-25T03:57:23.782Z,0.00
2022-09-25T03:58:23.763Z,0.00
2022-09-25T03:59:23.746Z,0.00
2022-09-25T04:00:23.744Z,0.00
2022-09-25T04:01:23.868Z,0.00
2022-09-25T04:02:23.773Z,0.00
2022-09-25T04:03:23.718Z,0.00
2022-09-25T04:04:23.709Z,0.00
2022-09-25T04:05:23.716Z,0.00
2022-09-25T04:06:23.786Z,0.00
2022-09-25T04:07:23.692Z,0.00
2022-09-25T04:08:23.686Z,0.00
2022-09-25T04:09:23.686Z,0.00
2022-09-25T04:10:23.670Z,0.00
2022-09-25T04:11:23.687Z,0.00
2022-09-25T04:12:23.665Z,0.00
2022-09-25T04:13:23.644Z,0.00
2022-09-25T04:14:23.662Z,0.00
2022-09-25T04:15:23.712Z,0.00
2022-09-25T04:16:23.708Z,0.00
2022-09-25T04:17:23.612Z,0.00
2022-09-25T04:18:23.623Z,0.00
2022-09-25T04:19:23.600Z,0.00
2022-09-25T04:20:23.665Z,0.00
2022-09-25T04:21:23.586Z,0.00
2022-09-25T04:22:23.584Z,0.00
2022-09-25T04:23:23.575Z,0.00
2022-09-25T04:24:23.560Z,0.00
2022-09-25T04:25:24.589Z,0.00
2022-09-25T04:26:24.545Z,0.00
2022-09-25T04:27:23.556Z,0.00
2022-09-25T04:28:23.533Z,0.00
2022-09-25T04:29:23.540Z,0.00
2022-09-25T04:30:23.586Z,0.00
2022-09-25T04:31:23.539Z,0.00
2022-09-25T04:32:23.525Z,0.00
2022-09-25T04:33:23.495Z,0.00
2022-09-25T04:34:23.491Z,0.00
2022-09-25T04:35:23.479Z,0.00
2022-09-25T04:36:23.502Z,0.00
2022-09-25T04:37:23.464Z,0.00
2022-09-25T04:38:23.483Z,0.00
2022-09-25T04:39:23.450Z,0.00
2022-09-25T04:40:23.609Z,0.00
2022-09-25T04:41:23.435Z,0.00
2022-09-25T04:42:23.421Z,0.00
2022-09-25T04:43:23.417Z,0.00
2022-09-25T04:44:23.407Z,0.00
2022-09-25T04:45:23.405Z,0.00
2022-09-25T04:46:23.452Z,0.00
2022-09-25T04:47:23.386Z,0.00
2022-09-25T04:48:23.414Z,0.00
2022-09-25T04:49:23.367Z,0.00
2022-09-25T04:50:23.387Z,0.00
2022-09-25T04:51:23.349Z,0.00
2022-09-25T04:52:23.352Z,0.00
2022-09-25T04:53:23.349Z,0.00
2022-09-25T04:54:23.332Z,0.00
2022-09-25T04:55:23.346Z,0.00
2022-09-25T04:56:23.361Z,4.00
2022-09-25T04:57:53.426Z,4.00
2022-09-25T04:58:25.294Z,0.00
2022-09-25T04:59:23.294Z,0.00
2022-09-25T05:00:23.311Z,4.00
2022-09-25T05:01:23.321Z,4.00
2022-09-25T05:02:23.345Z,4.00
2022-09-25T05:03:23.420Z,0.00
2022-09-25T05:04:23.254Z,0.00
2022-09-25T05:05:23.274Z,4.00
2022-09-25T05:06:23.322Z,4.00
2022-09-25T05:07:23.235Z,4.00
2022-09-25T05:08:23.225Z,8.00
2022-09-25T05:09:23.223Z,4.00
2022-09-25T05:10:23.234Z,4.00
2022-09-25T05:11:23.203Z,8.00
2022-09-25T05:12:23.242Z,8.00
2022-09-25T05:13:23.185Z,8.00
2022-09-25T05:14:24.193Z,8.00
2022-09-25T05:15:23.189Z,12.00
2022-09-25T05:16:23.246Z,8.00
2022-09-25T05:17:23.152Z,12.00
2022-09-25T05:18:23.158Z,12.00
2022-09-25T05:19:23.139Z,12.00
2022-09-25T05:20:23.149Z,12.00
2022-09-25T05:21:23.121Z,12.00
2022-09-25T05:22:23.113Z,12.00
2022-09-25T05:23:23.123Z,12.00
2022-09-25T05:24:23.096Z,16.00
2022-09-25T05:25:23.117Z,16.00
2022-09-25T05:26:23.088Z,20.00
2022-09-25T05:27:23.091Z,16.00
2022-09-25T05:28:23.080Z,16.00
2022-09-25T05:29:23.054Z,20.00
2022-09-25T05:30:23.085Z,20.00
2022-09-25T05:31:23.094Z,20.00
2022-09-25T05:32:23.050Z,20.00
2022-09-25T05:33:23.042Z,20.00
2022-09-25T05:34:23.021Z,24.00
2022-09-25T05:35:23.052Z,20.00
2022-09-25T05:36:23.011Z,24.00
2022-09-25T05:37:24.005Z,24.00
2022-09-25T05:38:22.985Z,28.00
2022-09-25T05:39:22.991Z,28.00
2022-09-25T05:40:23.066Z,28.00
2022-09-25T05:41:22.961Z,28.00
2022-09-25T05:42:22.961Z,32.00
2022-09-25T05:43:22.981Z,32.00
2022-09-25T05:44:22.945Z,32.00
2022-09-25T05:45:23.006Z,36.00
2022-09-25T05:46:22.988Z,36.00
2022-09-25T05:47:22.919Z,40.00
2022-09-25T05:48:22.932Z,36.00
2022-09-25T05:49:22.909Z,40.00
2022-09-25T05:50:23.031Z,36.00
2022-09-25T05:51:22.915Z,40.00
2022-09-25T05:52:22.882Z,40.00
2022-09-25T05:53:22.883Z,40.00
2022-09-25T05:54:22.866Z,40.00
2022-09-25T05:55:22.863Z,40.00
2022-09-25T05:56:22.909Z,44.00
2022-09-25T05:57:22.853Z,48.00
2022-09-25T05:58:22.901Z,48.00
2022-09-25T05:59:22.840Z,52.00
2022-09-25T06:00:22.855Z,56.00
2022-09-25T06:01:22.929Z,60.00
2022-09-25T06:02:22.807Z,64.00
2022-09-25T06:03:22.855Z,68.00
2022-09-25T06:04:23.796Z,72.00
2022-09-25T06:05:22.802Z,76.00
2022-09-25T06:06:27.361Z,76.00
2022-09-25T06:07:23.807Z,76.00
2022-09-25T06:08:22.761Z,80.00
2022-09-25T06:09:22.760Z,84.00
2022-09-25T06:10:22.746Z,84.00
2022-09-25T06:11:22.761Z,80.00
2022-09-25T06:12:22.741Z,84.00
2022-09-25T06:13:22.721Z,84.00
2022-09-25T06:14:22.729Z,84.00
2022-09-25T06:15:22.809Z,88.00
2022-09-25T06:16:22.772Z,92.00
2022-09-25T06:17:22.724Z,96.00
2022-09-25T06:18:22.690Z,104.00
2022-09-25T06:19:22.743Z,104.00
2022-09-25T06:20:22.666Z,108.00
2022-09-25T06:21:22.688Z,116.00
2022-09-25T06:22:22.649Z,116.00
2022-09-25T06:23:22.653Z,120.00
2022-09-25T06:24:22.666Z,120.00
2022-09-25T06:25:22.619Z,124.00
2022-09-25T06:26:23.650Z,128.00
2022-09-25T06:27:22.611Z,128.00
2022-09-25T06:28:22.610Z,124.00
2022-09-25T06:29:22.595Z,128.00
2022-09-25T06:30:22.593Z,132.00
2022-09-25T06:31:22.655Z,132.00
2022-09-25T06:32:22.579Z,132.00
2022-09-25T06:33:22.568Z,136.00
2022-09-25T06:34:22.558Z,136.00
2022-09-25T06:35:22.553Z,136.00
2022-09-25T06:36:22.571Z,136.00
2022-09-25T06:37:22.534Z,140.00
2022-09-25T06:38:22.522Z,140.00
2022-09-25T06:39:22.510Z,140.00
2022-09-25T06:40:23.598Z,140.00
2022-09-25T06:41:22.583Z,140.00
2022-09-25T06:42:22.486Z,140.00
2022-09-25T06:43:22.518Z,136.00
2022-09-25T06:44:22.507Z,140.00
2022-09-25T06:45:22.486Z,140.00
2022-09-25T06:46:22.603Z,140.00
2022-09-25T06:47:26.581Z,140.00
2022-09-25T06:48:23.449Z,144.00
2022-09-25T06:49:22.455Z,144.00
2022-09-25T06:50:22.436Z,144.00
2022-09-25T06:51:22.450Z,148.00
2022-09-25T06:52:22.419Z,152.00
2022-09-25T06:53:22.390Z,152.00
2022-09-25T06:54:23.420Z,156.00
2022-09-25T06:55:22.390Z,160.00
2022-09-25T06:56:22.406Z,160.00
2022-09-25T06:57:22.382Z,164.00
2022-09-25T06:58:22.365Z,168.00
2022-09-25T06:59:22.359Z,172.00
2022-09-25T07:00:22.349Z,180.00
2022-09-25T07:01:22.375Z,180.00
2022-09-25T07:02:22.457Z,188.00
2022-09-25T07:03:22.365Z,188.00
2022-09-25T07:04:22.323Z,192.00
2022-09-25T07:05:22.310Z,200.00
2022-09-25T07:06:22.334Z,208.00
2022-09-25T07:07:22.291Z,216.00
2022-09-25T07:08:22.289Z,224.00
2022-09-25T07:09:22.280Z,232.00
2022-09-25T07:10:22.267Z,236.00
2022-09-25T07:11:22.292Z,244.00
2022-09-25T07:12:22.254Z,252.00
2022-09-25T07:13:22.246Z,260.00
2022-09-25T07:14:22.261Z,264.00
2022-09-25T07:15:22.229Z,272.00
2022-09-25T07:16:22.303Z,276.00
2022-09-25T07:17:22.215Z,284.00
2022-09-25T07:18:22.207Z,292.00
2022-09-25T07:19:25.723Z,304.00
2022-09-25T07:20:24.251Z,312.00
2022-09-25T07:21:22.217Z,320.00
2022-09-25T07:22:22.193Z,328.00
2022-09-25T07:23:22.167Z,340.00
2022-09-25T07:24:22.157Z,356.00
2022-09-25T07:25:22.155Z,364.00
2022-09-25T07:26:22.275Z,380.00
2022-09-25T07:27:22.149Z,392.00
2022-09-25T07:28:22.135Z,404.00
2022-09-25T07:29:22.124Z,416.00
2022-09-25T07:30:22.116Z,424.00
2022-09-25T07:31:22.170Z,436.00
2022-09-25T07:32:22.106Z,448.00
2022-09-25T07:33:22.094Z,460.00
2022-09-25T07:34:22.084Z,468.00
2022-09-25T07:35:22.084Z,480.00
2022-09-25T07:36:22.055Z,484.00
2022-09-25T07:37:23.098Z,500.00
2022-09-25T07:38:22.056Z,508.00
2022-09-25T07:39:22.050Z,516.00
2022-09-25T07:40:22.111Z,524.00
2022-09-25T07:41:22.030Z,532.00
2022-09-25T07:42:22.048Z,544.00
2022-09-25T07:43:22.018Z,552.00
2022-09-25T07:44:28.914Z,556.00
2022-09-25T07:45:23.999Z,568.00
2022-09-25T07:46:22.034Z,580.00
2022-09-25T07:47:22.011Z,596.00
2022-09-25T07:48:21.973Z,608.00
2022-09-25T07:49:21.965Z,624.00
2022-09-25T07:50:22.003Z,636.00
2022-09-25T07:51:21.946Z,644.00
2022-09-25T07:52:21.972Z,652.00
2022-09-25T07:53:21.933Z,664.00
2022-09-25T07:54:21.920Z,668.00
2022-09-25T07:55:21.925Z,676.00
2022-09-25T07:56:21.912Z,680.00
2022-09-25T07:57:21.929Z,680.00
2022-09-25T07:58:21.901Z,684.00
2022-09-25T07:59:21.898Z,684.00
2022-09-25T08:00:21.957Z,684.00
2022-09-25T08:01:21.928Z,684.00
2022-09-25T08:02:21.997Z,680.00
2022-09-25T08:03:21.860Z,680.00
2022-09-25T08:04:21.849Z,688.00
2022-09-25T08:05:21.853Z,692.00
2022-09-25T08:06:21.842Z,704.00
2022-09-25T08:07:21.860Z,716.00
2022-09-25T08:08:21.838Z,724.00
2022-09-25T08:09:21.853Z,736.00
2022-09-25T08:10:21.941Z,740.00
2022-09-25T08:11:21.796Z,732.00
2022-09-25T08:12:21.813Z,720.00
2022-09-25T08:13:21.790Z,704.00
2022-09-25T08:14:26.499Z,692.00
2022-09-25T08:15:23.813Z,688.00
2022-09-25T08:16:21.852Z,684.00
2022-09-25T08:17:21.771Z,692.00
2022-09-25T08:18:21.746Z,704.00
2022-09-25T08:19:21.738Z,720.00
2022-09-25T08:20:21.724Z,740.00
2022-09-25T08:21:21.712Z,764.00
2022-09-25T08:22:21.742Z,792.00
2022-09-25T08:23:21.701Z,816.00
2022-09-25T08:24:21.691Z,844.00
2022-09-25T08:25:21.706Z,868.00
2022-09-25T08:26:21.679Z,896.00
2022-09-25T08:27:21.695Z,924.00
2022-09-25T08:28:21.681Z,948.00
2022-09-25T08:29:21.652Z,976.00
2022-09-25T08:30:21.651Z,1004.00
2022-09-25T08:31:21.674Z,1036.00
2022-09-25T08:32:21.663Z,1064.00
2022-09-25T08:33:21.632Z,1092.00
2022-09-25T08:34:39.944Z,1104.00
2022-09-25T08:35:23.607Z,1120.00
2022-09-25T08:36:21.601Z,1124.00
2022-09-25T08:37:21.634Z,1132.00
2022-09-25T08:38:21.594Z,1136.00
2022-09-25T08:39:21.572Z,1140.00
2022-09-25T08:40:21.723Z,1144.00
2022-09-25T08:41:21.566Z,1144.00
2022-09-25T08:42:21.596Z,1144.00
2022-09-25T08:43:21.544Z,1136.00
2022-09-25T08:44:21.545Z,1128.00
2022-09-25T08:45:22.425Z,1136.00
2022-09-25T08:46:22.612Z,1144.00
2022-09-25T08:47:21.587Z,1156.00
2022-09-25T08:48:21.506Z,1156.00
2022-09-25T08:49:21.499Z,1164.00
2022-09-25T08:50:21.496Z,1184.00
2022-09-25T08:51:21.476Z,1188.00
2022-09-25T08:52:21.519Z,1192.00
2022-09-25T08:54:21.469Z,1196.00
2022-09-25T08:55:21.451Z,1172.00
2022-09-25T08:56:21.458Z,1144.00
2022-09-25T08:57:21.464Z,1100.00
2022-09-25T08:58:21.425Z,1060.00
2022-09-25T08:59:21.410Z,1024.00
2022-09-25T09:00:21.411Z,992.00
2022-09-25T09:01:21.464Z,952.00
2022-09-25T09:02:21.416Z,908.00
2022-09-25T09:03:21.421Z,892.00
2022-09-25T09:04:21.384Z,876.00
2022-09-25T09:05:21.374Z,864.00
2022-09-25T09:06:21.370Z,892.00
2022-09-25T09:07:26.754Z,920.00
2022-09-25T09:08:23.385Z,936.00
2022-09-25T09:09:21.357Z,952.00
2022-09-25T09:10:21.353Z,956.00
2022-09-25T09:11:21.335Z,956.00
2022-09-25T09:12:21.333Z,940.00
2022-09-25T09:13:21.360Z,896.00
2022-09-25T09:14:21.305Z,860.00
2022-09-25T09:15:21.302Z,816.00
2022-09-25T09:16:21.298Z,776.00
2022-09-25T09:17:21.327Z,728.00
2022-09-25T09:18:21.362Z,680.00
2022-09-25T09:19:21.267Z,644.00
2022-09-25T09:20:21.312Z,608.00
2022-09-25T09:21:21.256Z,580.00
2022-09-25T09:22:21.282Z,560.00
2022-09-25T09:23:21.263Z,552.00
2022-09-25T09:24:21.226Z,544.00
2022-09-25T09:25:21.363Z,544.00
2022-09-25T09:26:21.390Z,536.00
2022-09-25T09:27:21.277Z,536.00
2022-09-25T09:28:21.214Z,528.00
2022-09-25T09:29:21.209Z,512.00
2022-09-25T09:30:21.182Z,496.00
2022-09-25T09:31:22.239Z,484.00
2022-09-25T09:32:21.179Z,476.00
2022-09-25T09:33:21.249Z,456.00
2022-09-25T09:34:21.204Z,452.00
2022-09-25T09:35:21.160Z,436.00
2022-09-25T09:36:21.218Z,432.00
2022-09-25T09:37:21.288Z,420.00
2022-09-25T09:38:21.145Z,404.00
2022-09-25T09:39:21.173Z,396.00
2022-09-25T09:40:21.182Z,408.00
2022-09-25T09:41:21.156Z,428.00
2022-09-25T09:42:21.143Z,452.00
2022-09-25T09:43:21.128Z,460.00
2022-09-25T09:44:21.100Z,468.00
2022-09-25T09:45:21.133Z,464.00
2022-09-25T09:46:21.171Z,440.00
2022-09-25T09:47:21.066Z,424.00
2022-09-25T09:48:21.071Z,412.00
2022-09-25T09:49:53.849Z,400.00
2022-09-25T09:50:21.029Z,404.00
2022-09-25T09:51:21.021Z,392.00
2022-09-25T09:52:21.005Z,396.00
2022-09-25T09:53:21.031Z,400.00
2022-09-25T09:54:20.994Z,420.00
2022-09-25T09:55:20.994Z,420.00
2022-09-25T09:56:20.956Z,416.00
2022-09-25T09:57:21.988Z,404.00
2022-09-25T09:58:20.989Z,392.00
2022-09-25T09:59:20.958Z,388.00
2022-09-25T10:00:20.946Z,392.00
2022-09-25T10:01:43.658Z,404.00
2022-09-25T10:02:23.100Z,412.00
2022-09-25T10:03:22.031Z,416.00
2022-09-25T10:04:20.909Z,412.00
2022-09-25T10:05:20.913Z,408.00
2022-09-25T10:06:22.707Z,400.00
2022-09-25T10:07:21.899Z,392.00
2022-09-25T10:08:20.950Z,380.00
2022-09-25T10:09:20.868Z,376.00
2022-09-25T10:10:20.863Z,368.00
2022-09-25T10:11:20.855Z,356.00
2022-09-25T10:12:20.851Z,348.00
2022-09-25T10:13:20.870Z,356.00
2022-09-25T10:14:20.827Z,364.00
2022-09-25T10:15:20.823Z,368.00
2022-09-25T10:16:20.842Z,372.00
2022-09-25T10:17:20.802Z,380.00
2022-09-25T10:18:20.800Z,384.00
2022-09-25T10:19:20.822Z,384.00
2022-09-25T10:20:20.790Z,384.00
2022-09-25T10:21:20.799Z,380.00
2022-09-25T10:22:20.777Z,368.00
2022-09-25T10:23:20.769Z,360.00
2022-09-25T10:24:20.753Z,348.00
2022-09-25T10:25:20.775Z,340.00
2022-09-25T10:26:20.731Z,344.00
2022-09-25T10:27:20.736Z,344.00
2022-09-25T10:28:20.736Z,348.00
2022-09-25T10:29:20.744Z,356.00
2022-09-25T10:30:20.732Z,372.00
2022-09-25T10:31:20.801Z,376.00
2022-09-25T10:32:20.691Z,376.00
2022-09-25T10:33:20.686Z,384.00
2022-09-25T10:34:20.679Z,388.00
2022-09-25T10:35:20.693Z,384.00
2022-09-25T10:36:20.663Z,388.00
2022-09-25T10:37:20.657Z,380.00
2022-09-25T10:38:20.639Z,372.00
2022-09-25T10:39:43.057Z,360.00
2022-09-25T10:40:22.730Z,360.00
2022-09-25T10:41:20.619Z,356.00
2022-09-25T10:42:20.631Z,364.00
2022-09-25T10:43:20.609Z,356.00
2022-09-25T10:44:20.588Z,348.00
2022-09-25T10:45:20.616Z,340.00
2022-09-25T10:46:20.610Z,340.00
2022-09-25T10:47:20.581Z,328.00
2022-09-25T10:48:20.568Z,324.00
2022-09-25T10:49:20.557Z,332.00
2022-09-25T10:50:20.576Z,324.00
2022-09-25T10:51:20.548Z,308.00
2022-09-25T10:52:20.532Z,316.00
2022-09-25T10:53:20.603Z,324.00
2022-09-25T10:54:20.570Z,320.00
2022-09-25T10:55:20.517Z,324.00
2022-09-25T10:56:20.585Z,316.00
2022-09-25T10:57:20.495Z,324.00
2022-09-25T10:58:20.494Z,328.00
2022-09-25T10:59:20.865Z,316.00
2022-09-25T11:00:20.476Z,328.00
2022-09-25T11:01:20.542Z,336.00
2022-09-25T11:02:20.555Z,344.00
2022-09-25T11:03:20.469Z,336.00
2022-09-25T11:04:20.455Z,336.00
2022-09-25T11:05:20.446Z,336.00
2022-09-25T11:06:20.460Z,324.00
2022-09-25T11:07:20.430Z,328.00
2022-09-25T11:08:20.423Z,324.00
2022-09-25T11:09:20.413Z,332.00
2022-09-25T11:10:20.403Z,340.00
2022-09-25T11:11:20.424Z,344.00
2022-09-25T11:12:20.391Z,336.00
2022-09-25T11:13:20.372Z,328.00
2022-09-25T11:14:20.375Z,336.00
2022-09-25T11:15:20.360Z,340.00
2022-09-25T11:16:20.463Z,348.00
2022-09-25T11:17:20.343Z,356.00
2022-09-25T11:18:20.335Z,356.00
2022-09-25T11:19:20.335Z,368.00
2022-09-25T11:20:20.326Z,376.00
2022-09-25T11:21:20.355Z,380.00
2022-09-25T11:22:20.311Z,388.00
2022-09-25T11:23:20.297Z,408.00
2022-09-25T11:24:20.288Z,432.00
2022-09-25T11:25:20.292Z,440.00
2022-09-25T11:26:20.301Z,436.00
2022-09-25T11:27:20.266Z,452.00
2022-09-25T11:28:20.265Z,448.00
2022-09-25T11:29:20.246Z,464.00
2022-09-25T11:30:20.248Z,472.00
2022-09-25T11:31:20.382Z,468.00
2022-09-25T11:32:20.245Z,480.00
2022-09-25T11:33:20.216Z,484.00
2022-09-25T11:34:20.213Z,484.00
2022-09-25T11:35:20.269Z,484.00
2022-09-25T11:36:20.225Z,488.00
2022-09-25T11:37:20.193Z,484.00
2022-09-25T11:38:20.177Z,480.00
2022-09-25T11:39:21.173Z,476.00
2022-09-25T11:40:20.254Z,472.00
2022-09-25T11:41:20.183Z,464.00
2022-09-25T11:42:20.153Z,448.00
2022-09-25T11:43:20.133Z,440.00
2022-09-25T11:44:20.139Z,436.00
2022-09-25T11:45:20.152Z,440.00
2022-09-25T11:46:20.180Z,448.00
2022-09-25T11:47:20.107Z,460.00
2022-09-25T11:48:20.107Z,472.00
2022-09-25T11:49:20.102Z,484.00
2022-09-25T11:50:20.113Z,512.00
2022-09-25T11:51:20.074Z,528.00
2022-09-25T11:52:20.063Z,540.00
2022-09-25T11:53:20.070Z,560.00
2022-09-25T11:54:33.123Z,572.00
2022-09-25T11:55:22.077Z,576.00
2022-09-25T11:56:20.033Z,592.00
2022-09-25T11:57:20.090Z,600.00
2022-09-25T11:58:20.046Z,612.00
2022-09-25T11:59:20.008Z,616.00
2022-09-25T12:00:21.041Z,620.00
2022-09-25T12:01:20.062Z,624.00
2022-09-25T12:02:20.055Z,624.00
2022-09-25T12:03:19.983Z,632.00
2022-09-25T12:04:19.976Z,640.00
2022-09-25T12:05:19.994Z,640.00
2022-09-25T12:06:19.990Z,648.00
2022-09-25T12:07:19.966Z,652.00
2022-09-25T12:08:19.947Z,660.00
2022-09-25T12:09:19.933Z,664.00
2022-09-25T12:10:19.965Z,672.00
2022-09-25T12:11:19.919Z,676.00
2022-09-25T12:12:19.939Z,680.00
2022-09-25T12:13:19.904Z,688.00
2022-09-25T12:14:19.892Z,708.00
2022-09-25T12:15:19.915Z,728.00
2022-09-25T12:16:19.933Z,748.00
2022-09-25T12:17:19.880Z,768.00
2022-09-25T12:18:19.863Z,796.00
2022-09-25T12:19:19.876Z,824.00
2022-09-25T12:20:19.880Z,852.00
2022-09-25T12:21:19.857Z,888.00
2022-09-25T12:22:19.840Z,928.00
2022-09-25T12:23:19.824Z,972.00
2022-09-25T12:24:19.819Z,1004.00
2022-09-25T12:25:19.851Z,1032.00
2022-09-25T12:26:19.801Z,1048.00
2022-09-25T12:27:19.792Z,1064.00
2022-09-25T12:28:19.800Z,1080.00
2022-09-25T12:29:19.844Z,1092.00
2022-09-25T12:30:19.792Z,1108.00
2022-09-25T12:31:19.826Z,1116.00
2022-09-25T12:32:19.754Z,1140.00
2022-09-25T12:33:19.754Z,1160.00
2022-09-25T12:34:19.747Z,1180.00
2022-09-25T12:35:19.758Z,1200.00
2022-09-25T12:36:19.721Z,1228.00
2022-09-25T12:37:22.142Z,1264.00
2022-09-25T12:38:19.705Z,1296.00
2022-09-25T12:39:19.694Z,1332.00
2022-09-25T12:40:19.747Z,1352.00
2022-09-25T12:41:19.683Z,1356.00
2022-09-25T12:42:19.678Z,1364.00
2022-09-25T12:43:19.680Z,1372.00
2022-09-25T12:44:23.617Z,1372.00
2022-09-25T12:45:21.744Z,1360.00
2022-09-25T12:46:19.687Z,1344.00
2022-09-25T12:47:19.632Z,1324.00
2022-09-25T12:48:19.629Z,1308.00
2022-09-25T12:49:19.627Z,1296.00